createdAt,value
2018-12-29T00:00:55.064Z,102520.28
2018-12-29T00:03:24.410Z,102519.76
2018-12-29T00:05:53.768Z,102518.80
2018-12-29T00:08:23.099Z,102511.26
2018-12-29T00:10:52.465Z,102509.01
2018-12-29T00:13:21.804Z,102510.77
2018-12-29T00:15:51.485Z,102506.66
2018-12-29T00:18:20.830Z,102513.31
2018-12-29T00:20:50.190Z,102517.22
2018-12-29T00:23:20.699Z,102509.62
2018-12-29T00:25:50.053Z,102500.69
2018-12-29T00:28:19.402Z,102510.02
2018-12-29T00:30:48.760Z,102512.20
2018-12-29T00:33:18.445Z,102510.38
2018-12-29T00:35:48.045Z,102512.14
2018-12-29T00:38:17.385Z,102504.55
2018-12-29T00:40:46.738Z,102511.22
2018-12-29T00:43:16.631Z,102515.67
2018-12-29T00:45:45.985Z,102516.04
2018-12-29T00:48:15.349Z,102511.09
2018-12-29T00:50:44.705Z,102515.59
2018-12-29T00:53:14.044Z,102521.80
2018-12-29T00:55:43.643Z,102520.02
2018-12-29T00:58:12.978Z,102525.78
2018-12-29T01:00:42.334Z,102527.02
2018-12-29T01:03:12.799Z,102521.13
2018-12-29T01:05:42.190Z,102527.86
2018-12-29T01:08:11.529Z,102529.25
2018-12-29T01:10:40.880Z,102535.88
2018-12-29T01:13:10.223Z,102554.03
2018-12-29T01:15:39.575Z,102552.63
2018-12-29T01:18:08.923Z,102543.27
2018-12-29T01:20:38.282Z,102553.05
2018-12-29T01:23:07.637Z,102552.94
2018-12-29T01:25:36.993Z,102560.11
2018-12-29T01:28:06.372Z,102554.45
2018-12-29T01:30:35.733Z,102554.52
2018-12-29T01:33:05.069Z,102564.84
2018-12-29T01:35:34.427Z,102558.63
2018-12-29T01:38:03.779Z,102563.45
2018-12-29T01:40:33.126Z,102555.84
2018-12-29T01:43:02.460Z,102569.21
2018-12-29T01:45:31.827Z,102565.67
2018-12-29T01:48:01.153Z,102559.86
2018-12-29T01:50:30.513Z,102565.73
2018-12-29T01:52:59.971Z,102557.30
2018-12-29T01:55:29.585Z,102553.19
2018-12-29T01:57:58.927Z,102554.03
2018-12-29T02:00:28.524Z,102557.06
2018-12-29T02:02:57.858Z,102557.91
2018-12-29T02:05:27.216Z,102549.42
2018-12-29T02:07:56.563Z,102552.08
2018-12-29T02:10:26.227Z,102554.77
2018-12-29T02:12:55.572Z,102554.64
2018-12-29T02:15:25.018Z,102547.96
2018-12-29T02:17:54.337Z,102552.37
2018-12-29T02:20:23.680Z,102547.39
2018-12-29T02:22:53.029Z,102542.17
2018-12-29T02:25:22.369Z,102550.27
2018-12-29T02:27:52.346Z,102543.52
2018-12-29T02:30:21.688Z,102542.13
2018-12-29T02:32:51.254Z,102538.17
2018-12-29T02:35:20.592Z,102537.25
2018-12-29T02:37:50.500Z,102535.00
2018-12-29T02:40:19.829Z,102545.22
2018-12-29T02:42:49.184Z,102547.03
2018-12-29T02:45:18.526Z,102546.05
2018-12-29T02:47:48.198Z,102536.23
2018-12-29T02:50:17.537Z,102539.80
2018-12-29T02:52:46.896Z,102536.58
2018-12-29T02:55:16.240Z,102531.55
2018-12-29T02:57:45.604Z,102532.44
2018-12-29T03:00:14.938Z,102531.55
2018-12-29T03:02:44.306Z,102531.66
2018-12-29T03:05:13.632Z,102526.73
2018-12-29T03:07:42.994Z,102524.92
2018-12-29T03:10:12.329Z,102515.09
2018-12-29T03:12:41.690Z,102510.14
2018-12-29T03:15:11.033Z,102508.33
2018-12-29T03:17:40.399Z,102510.45
2018-12-29T03:20:11.378Z,102513.07
2018-12-29T03:22:40.735Z,102514.94
2018-12-29T03:25:10.138Z,102514.52
2018-12-29T03:27:39.494Z,102521.70
2018-12-29T03:30:08.854Z,102515.98
2018-12-29T03:32:38.199Z,102516.95
2018-12-29T03:35:07.620Z,102518.30
2018-12-29T03:37:36.943Z,102515.20
2018-12-29T03:40:07.438Z,102522.38
2018-12-29T03:42:36.767Z,102512.47
2018-12-29T03:45:06.198Z,102507.19
2018-12-29T03:47:35.832Z,102512.05
2018-12-29T03:50:05.815Z,102513.38
2018-12-29T03:52:35.211Z,102511.48
2018-12-29T03:55:04.563Z,102507.48
2018-12-29T03:57:33.912Z,102508.75
2018-12-29T04:00:04.402Z,102505.66
2018-12-29T04:02:33.997Z,102501.66
2018-12-29T04:05:03.346Z,102509.59
2018-12-29T04:07:32.929Z,102512.69
2018-12-29T04:10:02.657Z,102504.61
2018-12-29T04:12:32.085Z,102494.78
2018-12-29T04:15:01.418Z,102493.81
2018-12-29T04:17:30.775Z,102494.23
2018-12-29T04:20:00.232Z,102492.47
2018-12-29T04:22:29.544Z,102496.05
2018-12-29T04:24:58.881Z,102492.95
2018-12-29T04:27:28.238Z,102493.87
2018-12-29T04:29:57.601Z,102487.66
2018-12-29T04:32:26.954Z,102492.09
2018-12-29T04:34:56.318Z,102483.73
2018-12-29T04:37:25.968Z,102488.63
2018-12-29T04:39:55.332Z,102490.91
2018-12-29T04:42:24.678Z,102492.30
2018-12-29T04:44:54.380Z,102486.46
2018-12-29T04:47:23.730Z,102483.31
2018-12-29T04:49:53.088Z,102489.99
2018-12-29T04:52:22.694Z,102490.33
2018-12-29T04:54:52.302Z,102482.31
2018-12-29T04:57:21.645Z,102487.19
2018-12-29T04:59:51.009Z,102482.20
2018-12-29T05:02:20.354Z,102486.55
2018-12-29T05:04:49.714Z,102485.66
2018-12-29T05:07:19.063Z,102490.14
2018-12-29T05:09:48.420Z,102493.18
2018-12-29T05:12:17.766Z,102491.41
2018-12-29T05:14:47.127Z,102490.48
2018-12-29T05:17:16.470Z,102493.96
2018-12-29T05:19:46.080Z,102497.89
2018-12-29T05:22:15.421Z,102495.94
2018-12-29T05:24:46.592Z,102498.20
2018-12-29T05:27:17.654Z,102495.52
2018-12-29T05:29:47.338Z,102505.36
2018-12-29T05:32:16.672Z,102501.90
2018-12-29T05:34:46.034Z,102499.31
2018-12-29T05:37:15.666Z,102505.91
2018-12-29T05:39:45.021Z,102504.99
2018-12-29T05:42:14.367Z,102502.27
2018-12-29T05:44:43.734Z,102504.52
2018-12-29T05:47:13.364Z,102508.95
2018-12-29T05:49:42.727Z,102506.27
2018-12-29T05:52:12.073Z,102510.28
2018-12-29T05:54:41.605Z,102507.19
2018-12-29T05:57:10.950Z,102519.64
2018-12-29T05:59:40.689Z,102510.28
2018-12-29T06:02:10.103Z,102512.88
2018-12-29T06:04:39.468Z,102512.41
2018-12-29T06:07:08.803Z,102514.99
2018-12-29T06:09:48.081Z,102512.34
2018-12-29T06:12:17.437Z,102512.82
2018-12-29T06:14:46.783Z,102515.49
2018-12-29T06:17:16.153Z,102513.30
2018-12-29T06:19:45.753Z,102514.22
2018-12-29T06:22:15.127Z,102511.56
2018-12-29T06:24:44.766Z,102511.54
2018-12-29T06:27:16.005Z,102507.89
2018-12-29T06:29:45.363Z,102507.81
2018-12-29T06:32:14.727Z,102501.91
2018-12-29T06:34:44.068Z,102507.62
2018-12-29T06:37:13.433Z,102505.92
2018-12-29T06:39:42.782Z,102513.46
2018-12-29T06:42:12.148Z,102518.34
2018-12-29T06:44:41.500Z,102517.89
2018-12-29T06:47:11.159Z,102520.93
2018-12-29T06:49:40.606Z,102519.29
2018-12-29T06:52:10.269Z,102525.50
2018-12-29T06:54:39.620Z,102525.36
2018-12-29T06:57:08.977Z,102536.89
2018-12-29T06:59:38.323Z,102531.56
2018-12-29T07:02:09.306Z,102530.34
2018-12-29T07:04:38.648Z,102526.78
2018-12-29T07:07:08.003Z,102527.67
2018-12-29T07:09:37.362Z,102518.31
2018-12-29T07:12:06.712Z,102524.52
2018-12-29T07:14:36.079Z,102528.95
2018-12-29T07:17:07.033Z,102532.55
2018-12-29T07:19:36.387Z,102539.59
2018-12-29T07:22:05.734Z,102540.06
2018-12-29T07:24:35.096Z,102541.55
2018-12-29T07:27:04.774Z,102553.52
2018-12-29T07:29:38.242Z,102546.34
2018-12-29T07:32:05.561Z,102541.83
2018-12-29T07:34:36.148Z,102543.16
2018-12-29T07:37:05.496Z,102541.69
2018-12-29T07:39:34.864Z,102548.39
2018-12-29T07:42:04.212Z,102537.31
2018-12-29T07:44:35.212Z,102546.92
2018-12-29T07:47:04.577Z,102534.50
2018-12-29T07:49:33.960Z,102537.70
2018-12-29T07:52:03.380Z,102535.97
2018-12-29T07:54:32.739Z,102538.11
2018-12-29T07:57:02.107Z,102534.64
2018-12-29T07:59:31.452Z,102527.39
2018-12-29T08:02:00.869Z,102522.47
2018-12-29T08:04:30.266Z,102528.62
2018-12-29T08:06:59.947Z,102529.52
2018-12-29T08:09:29.289Z,102520.17
2018-12-29T08:11:58.647Z,102522.41
2018-12-29T08:14:28.232Z,102517.89
2018-12-29T08:16:57.598Z,102518.70
2018-12-29T08:19:26.939Z,102512.02
2018-12-29T08:21:56.311Z,102516.86
2018-12-29T08:24:25.756Z,102507.61
2018-12-29T08:26:55.185Z,102501.78
2018-12-29T08:29:25.513Z,102502.20
2018-12-29T08:31:54.921Z,102499.81
2018-12-29T08:34:24.282Z,102500.67
2018-12-29T08:36:53.632Z,102503.70
2018-12-29T08:39:22.996Z,102498.05
2018-12-29T08:41:52.340Z,102496.30
2018-12-29T08:44:21.694Z,102492.73
2018-12-29T08:46:51.046Z,102498.83
2018-12-29T08:49:20.410Z,102487.56
2018-12-29T08:51:49.748Z,102488.42
2018-12-29T08:54:20.076Z,102490.53
2018-12-29T08:56:49.423Z,102490.45
2018-12-29T08:59:18.838Z,102487.27
2018-12-29T09:01:48.837Z,102490.81
2018-12-29T09:04:18.193Z,102491.22
2018-12-29T09:06:48.199Z,102489.44
2018-12-29T09:09:17.560Z,102484.89
2018-12-29T09:11:49.151Z,102477.25
2018-12-29T09:14:19.584Z,102466.55
2018-12-29T09:16:49.247Z,102465.22
2018-12-29T09:19:27.391Z,102464.31
2018-12-29T09:21:56.752Z,102458.91
2018-12-29T09:24:27.240Z,102458.52
2018-12-29T09:26:56.899Z,102462.98
2018-12-29T09:29:26.276Z,102450.08
2018-12-29T09:31:55.613Z,102453.20
2018-12-29T09:34:24.994Z,102448.20
2018-12-29T09:36:54.346Z,102450.84
2018-12-29T09:39:24.413Z,102455.28
2018-12-29T09:41:53.773Z,102448.97
2018-12-29T09:44:23.838Z,102436.42
2018-12-29T09:46:53.190Z,102422.21
2018-12-29T09:49:22.659Z,102407.97
2018-12-29T09:51:52.011Z,102399.44
2018-12-29T09:54:22.541Z,102388.67
2018-12-29T09:56:53.946Z,102388.03
2018-12-29T09:59:25.888Z,102376.78
2018-12-29T10:01:59.798Z,102370.13
2018-12-29T10:04:30.934Z,102367.70
2018-12-29T10:07:00.897Z,102359.16
2018-12-29T10:09:45.557Z,102364.95
2018-12-29T10:12:16.736Z,102349.55
2018-12-29T10:14:55.517Z,102349.38
2018-12-29T10:17:28.802Z,102346.13
2018-12-29T10:19:59.667Z,102355.02
2018-12-29T10:22:29.086Z,102335.41
2018-12-29T10:24:58.446Z,102333.09
2018-12-29T10:27:28.045Z,102329.42
2018-12-29T10:29:58.685Z,102323.90
2018-12-29T10:32:29.009Z,102326.00
2018-12-29T10:34:58.372Z,102319.27
2018-12-29T10:37:27.713Z,102313.78
2018-12-29T10:39:58.045Z,102315.53
2018-12-29T10:42:27.709Z,102327.00
2018-12-29T10:44:57.071Z,102322.23
2018-12-29T10:47:26.414Z,102332.94
2018-12-29T10:49:55.782Z,102329.33
2018-12-29T10:52:25.168Z,102326.72
2018-12-29T10:54:54.507Z,102333.86
2018-12-29T10:57:23.890Z,102329.84
2018-12-29T10:59:53.283Z,102324.56
2018-12-29T11:02:22.674Z,102329.05
2018-12-29T11:04:52.282Z,102322.23
2018-12-29T11:07:21.675Z,102314.44
2018-12-29T11:09:51.027Z,102302.80
2018-12-29T11:12:21.491Z,102296.00
2018-12-29T11:14:50.845Z,102303.83
2018-12-29T11:17:21.248Z,102296.20
2018-12-29T11:19:50.927Z,102289.88
2018-12-29T11:22:20.283Z,102280.38
2018-12-29T11:24:49.659Z,102283.12
2018-12-29T11:27:19.002Z,102266.73
2018-12-29T11:29:48.361Z,102254.34
2018-12-29T11:32:17.731Z,102249.98
2018-12-29T11:34:47.097Z,102259.05
2018-12-29T11:37:16.746Z,102259.61
2018-12-29T11:39:46.117Z,102264.41
2018-12-29T11:42:15.509Z,102279.11
2018-12-29T11:44:44.864Z,102275.09
2018-12-29T11:47:14.498Z,102273.86
2018-12-29T11:49:46.766Z,102278.77
2018-12-29T11:52:16.141Z,102267.64
2018-12-29T11:54:45.748Z,102249.34
2018-12-29T11:57:15.361Z,102244.47
2018-12-29T11:59:44.735Z,102233.23
2018-12-29T12:02:14.093Z,102199.35
2018-12-29T12:04:43.732Z,102185.08
2018-12-29T12:07:13.066Z,102194.41
2018-12-29T12:09:42.691Z,102200.28
2018-12-29T12:12:12.032Z,102231.90
2018-12-29T12:14:41.628Z,102251.44
2018-12-29T12:17:10.971Z,102246.45
2018-12-29T12:19:40.340Z,102231.58
2018-12-29T12:22:10.024Z,102199.11
2018-12-29T12:24:39.390Z,102195.84
2018-12-29T12:27:08.728Z,102195.73
2018-12-29T12:29:38.397Z,102232.56
2018-12-29T12:32:07.766Z,102216.05
2018-12-29T12:34:37.137Z,102205.70
2018-12-29T12:37:06.527Z,102197.63
2018-12-29T12:39:35.913Z,102197.16
2018-12-29T12:42:05.280Z,102199.65
2018-12-29T12:44:36.204Z,102217.13
2018-12-29T12:47:06.133Z,102214.72
2018-12-29T12:49:35.480Z,102199.05
2018-12-29T12:52:05.117Z,102182.39
2018-12-29T12:54:35.859Z,102187.56
2018-12-29T12:57:06.408Z,102170.29
2018-12-29T12:59:36.028Z,102163.95
2018-12-29T13:02:05.960Z,102166.08
2018-12-29T13:04:35.311Z,102171.59
2018-12-29T13:07:05.063Z,102159.33
2018-12-29T13:09:34.403Z,102153.38
2018-12-29T13:12:05.062Z,102151.42
2018-12-29T13:14:34.435Z,102144.56
2018-12-29T13:17:04.755Z,102128.36
2018-12-29T13:44:27.795Z,102045.12
2018-12-29T13:46:57.860Z,102046.15
2018-12-29T13:49:27.789Z,102053.81
2018-12-29T13:51:58.515Z,102046.63
2018-12-29T13:54:27.877Z,102040.34
2018-12-29T13:56:58.471Z,102007.67
2018-12-29T13:59:27.864Z,102007.67
2018-12-29T14:01:58.151Z,102008.58
2018-12-29T14:04:28.064Z,102008.58
2018-12-29T14:06:57.812Z,102007.23
2018-12-29T14:09:28.692Z,101979.53
2018-12-29T14:11:58.046Z,101970.88
2018-12-29T14:14:27.954Z,101967.70
2018-12-29T14:16:57.637Z,101965.64
2018-12-29T14:19:27.342Z,101974.54
2018-12-29T14:21:57.191Z,101978.44
2018-12-29T14:24:27.086Z,101978.44
2018-12-29T14:26:56.610Z,101970.31
2018-12-29T14:29:26.014Z,101965.84
2018-12-29T14:31:55.806Z,101936.48
2018-12-29T14:34:25.304Z,101936.48
2018-12-29T14:36:55.027Z,101943.98
2018-12-29T14:39:25.752Z,101945.00
2018-12-29T14:41:55.368Z,101934.45
2018-12-29T14:44:25.069Z,101926.62
2018-12-29T14:46:54.617Z,101916.44
2018-12-29T14:49:24.293Z,101916.44
2018-12-29T14:51:55.411Z,101917.94
2018-12-29T14:54:25.254Z,101930.53
2018-12-29T14:56:54.673Z,101990.50
2018-12-29T14:59:24.604Z,101990.50
2018-12-29T15:01:54.918Z,101993.19
2018-12-29T15:04:24.274Z,101978.48
2018-12-29T15:06:55.865Z,101974.14
2018-12-29T15:09:25.262Z,101958.14
2018-12-29T15:11:54.755Z,101942.48
2018-12-29T15:14:24.125Z,101942.48
2018-12-29T15:16:53.796Z,101919.91
2018-12-29T15:19:23.138Z,101910.66
2018-12-29T15:21:52.798Z,101883.30
2018-12-29T15:24:22.193Z,101883.30
2018-12-29T15:26:52.373Z,101877.54
2018-12-29T15:29:22.502Z,101877.54
2018-12-29T15:31:51.948Z,101867.76
2018-12-29T15:34:21.295Z,101857.50
2018-12-29T15:36:51.185Z,101862.00
2018-12-29T15:39:20.917Z,101877.66
2018-12-29T15:41:50.286Z,101871.70
2018-12-29T15:44:19.979Z,101860.13
2018-12-29T15:46:49.853Z,101863.34
2018-12-29T15:49:19.945Z,101863.34
2018-12-29T15:51:49.469Z,101861.39
2018-12-29T15:54:19.155Z,101846.94
2018-12-29T15:56:48.885Z,101849.20
2018-12-29T15:59:18.847Z,101849.20
2018-12-29T16:01:48.815Z,101858.02
2018-12-29T16:04:18.898Z,101866.41
2018-12-29T16:06:48.260Z,101850.17
2018-12-29T16:09:18.459Z,101851.06
2018-12-29T16:11:48.006Z,101839.86
2018-12-29T16:14:19.000Z,101856.75
2018-12-29T16:16:48.872Z,101867.99
2018-12-29T16:19:19.419Z,101867.99
2018-12-29T16:21:48.984Z,101870.55
2018-12-29T16:24:19.882Z,101867.78
2018-12-29T16:26:49.241Z,101857.88
2018-12-29T16:29:19.921Z,101855.19
2018-12-29T16:31:49.272Z,101847.61
2018-12-29T16:34:19.309Z,101833.76
2018-12-29T16:36:49.225Z,101820.77
2018-12-29T16:39:21.839Z,101810.77
2018-12-29T16:41:51.202Z,101804.88
2018-12-29T16:44:22.666Z,101797.20
2018-12-29T16:46:52.950Z,101795.33
2018-12-29T16:49:22.322Z,101796.53
2018-12-29T16:51:52.284Z,101773.54
2018-12-29T16:54:21.951Z,101754.61
2018-12-29T16:56:51.827Z,101769.30
2018-12-29T16:59:21.223Z,101767.02
2018-12-29T17:01:52.716Z,101767.02
2018-12-29T17:04:22.387Z,101758.08
2018-12-29T17:06:52.038Z,101740.97
2018-12-29T17:09:22.236Z,101747.98
2018-12-29T17:11:52.763Z,101755.97
2018-12-29T17:14:22.739Z,101751.87
2018-12-29T17:16:54.494Z,101729.16
2018-12-29T17:19:24.267Z,101744.13
2018-12-29T17:21:54.717Z,101729.65
2018-12-29T17:24:24.456Z,101714.02
2018-12-29T17:26:54.270Z,101714.02
2018-12-29T17:29:23.618Z,101707.71
2018-12-29T17:31:53.287Z,101687.11
2018-12-29T17:34:24.862Z,101687.11
2018-12-29T17:36:54.765Z,101698.31
2018-12-29T17:39:24.431Z,101698.31
2018-12-29T17:41:54.073Z,101696.92
2018-12-29T17:44:23.444Z,101684.77
2018-12-29T17:46:53.877Z,101671.20
2018-12-29T17:49:23.940Z,101684.22
2018-12-29T17:51:54.131Z,101675.62
2018-12-29T17:54:23.472Z,101678.36
2018-12-29T17:56:53.103Z,101670.27
2018-12-29T17:59:22.577Z,101670.27
2018-12-29T18:01:52.348Z,101662.52
2018-12-29T18:04:21.698Z,101676.64
2018-12-29T18:06:52.305Z,101649.09
2018-12-29T18:09:21.708Z,101649.09
2018-12-29T18:11:51.195Z,101641.11
2018-12-29T18:14:20.543Z,101641.11
2018-12-29T18:16:50.248Z,101633.85
2018-12-29T18:19:20.266Z,101632.76
2018-12-29T18:21:49.704Z,101630.29
2018-12-29T18:24:19.588Z,101631.94
2018-12-29T18:26:50.227Z,101629.09
2018-12-29T18:29:21.466Z,101615.98
2018-12-29T18:31:51.296Z,101624.43
2018-12-29T18:34:21.805Z,101616.77
2018-12-29T18:36:52.063Z,101613.35
2018-12-29T18:39:21.635Z,101613.35
2018-12-29T18:41:51.282Z,101606.48
2018-12-29T18:44:20.725Z,101600.08
2018-12-29T18:46:51.345Z,101609.13
2018-12-29T18:49:20.705Z,101605.89
2018-12-29T18:51:51.334Z,101600.56
2018-12-29T18:54:20.699Z,101600.56
2018-12-29T18:56:52.828Z,101604.09
2018-12-29T18:59:30.717Z,101597.02
2018-12-29T19:02:00.462Z,101597.02
2018-12-29T19:04:29.811Z,101590.25
2018-12-29T19:06:59.513Z,101600.80
2018-12-29T19:09:29.895Z,101600.44
2018-12-29T19:11:59.342Z,101594.02
2018-12-29T19:14:28.880Z,101603.97
2018-12-29T19:16:59.523Z,101597.66
2018-12-29T19:19:29.860Z,101584.03
2018-12-29T19:21:59.712Z,101592.06
2018-12-29T19:24:30.130Z,101592.06
2018-12-29T19:26:59.843Z,101577.48
2018-12-29T19:29:30.196Z,101565.53
2018-12-29T19:32:00.367Z,101569.23
2018-12-29T19:34:31.486Z,101569.23
2018-12-29T19:37:01.314Z,101565.48
2018-12-29T19:39:39.792Z,101566.56
2018-12-29T19:42:09.892Z,101582.42
2018-12-29T19:44:39.500Z,101559.94
2018-12-29T19:47:08.996Z,101577.05
2018-12-29T19:49:38.385Z,101581.54
2018-12-29T19:52:08.811Z,101598.88
2018-12-29T19:54:38.429Z,101575.68
2018-12-29T19:57:08.348Z,101591.11
2018-12-29T19:59:38.435Z,101586.09
2018-12-29T20:02:08.181Z,101586.09
2018-12-29T20:04:37.517Z,101586.81
2018-12-29T20:07:07.557Z,101592.94
2018-12-29T20:09:36.889Z,101604.13
2018-12-29T20:12:06.566Z,101607.95
2018-12-29T20:14:35.900Z,101607.95
2018-12-29T20:17:05.401Z,101609.31
2018-12-29T20:19:34.733Z,101609.31
2018-12-29T20:22:04.324Z,101612.40
2018-12-29T20:24:33.891Z,101612.49
2018-12-29T20:27:03.727Z,101606.78
2018-12-29T20:29:33.382Z,101606.54
2018-12-29T20:32:03.697Z,101587.55
2018-12-29T20:34:33.399Z,101609.02
2018-12-29T20:37:02.744Z,101609.02
2018-12-29T20:39:32.445Z,101614.38
2018-12-29T20:42:01.791Z,101609.08
2018-12-29T20:44:31.418Z,101605.89
2018-12-29T20:47:02.276Z,101606.19
2018-12-29T20:49:46.524Z,101611.01
2018-12-29T20:52:16.624Z,101605.25
2018-12-29T20:54:47.395Z,101605.25
2018-12-29T20:57:17.866Z,101610.31
2018-12-29T20:59:47.548Z,101615.83
2018-12-29T21:02:16.885Z,101615.83
2018-12-29T21:04:46.533Z,101623.67
2018-12-29T21:07:16.768Z,101623.67
2018-12-29T21:09:46.710Z,101622.05
2018-12-29T21:12:16.356Z,101622.05
2018-12-29T21:14:45.688Z,101636.16
2018-12-29T21:17:15.042Z,101633.87
2018-12-29T21:19:44.532Z,101635.45
2018-12-29T21:22:14.842Z,101635.45
2018-12-29T21:24:44.186Z,101629.23
2018-12-29T21:27:15.008Z,101627.10
2018-12-29T21:29:44.672Z,101624.84
2018-12-29T21:32:14.992Z,101624.84
2018-12-29T21:34:44.606Z,101634.52
2018-12-29T21:37:21.035Z,101623.88
2018-12-29T21:39:50.978Z,101631.30
2018-12-29T21:42:20.624Z,101631.30
2018-12-29T21:44:50.002Z,101642.73
2018-12-29T21:47:19.692Z,101633.34
2018-12-29T21:49:49.044Z,101640.59
2018-12-29T21:52:19.001Z,101646.13
2018-12-29T21:54:48.631Z,101641.31
2018-12-29T21:57:18.067Z,101637.67
2018-12-29T21:59:47.678Z,101631.29
2018-12-29T22:02:17.401Z,101631.29
2018-12-29T22:04:46.747Z,101638.79
2018-12-29T22:07:16.094Z,101634.37
2018-12-29T22:09:45.723Z,101638.94
2018-12-29T22:12:15.234Z,101644.23
2018-12-29T22:14:45.586Z,101642.10
2018-12-29T22:17:14.984Z,101642.10
2018-12-29T22:19:44.621Z,101644.69
2018-12-29T22:22:14.205Z,101647.52
2018-12-29T22:24:43.921Z,101659.22
2018-12-29T22:27:14.126Z,101658.73
2018-12-29T22:29:44.709Z,101653.36
2018-12-29T22:32:14.226Z,101653.36
2018-12-29T22:34:43.777Z,101659.44
2018-12-29T22:37:14.115Z,101659.44
2018-12-29T22:39:43.751Z,101670.56
2018-12-29T22:42:13.135Z,101648.71
2018-12-29T22:44:42.828Z,101666.23
2018-12-29T22:47:13.105Z,101666.23
2018-12-29T22:49:42.835Z,101663.31
2018-12-29T22:52:12.655Z,101663.31
2018-12-29T22:54:42.038Z,101673.95
2018-12-29T22:57:11.711Z,101668.59
2018-12-29T22:59:41.049Z,101668.59
2018-12-29T23:02:10.830Z,101668.05
2018-12-29T23:04:40.180Z,101668.05
2018-12-29T23:07:09.950Z,101678.14
2018-12-29T23:09:39.347Z,101678.14
2018-12-29T23:12:08.851Z,101687.43
2018-12-29T23:14:38.205Z,101687.43
2018-12-29T23:17:07.822Z,101684.30
2018-12-29T23:19:37.174Z,101688.14
2018-12-29T23:22:06.795Z,101684.92
2018-12-29T23:24:36.156Z,101683.48
2018-12-29T23:27:05.788Z,101687.86
2018-12-29T23:29:35.199Z,101702.91
2018-12-29T23:32:04.793Z,101695.72
2018-12-29T23:34:34.823Z,101699.30
2018-12-29T23:37:04.175Z,101704.42
2018-12-29T23:39:33.532Z,101706.38
2018-12-29T23:42:02.936Z,101715.46
2018-12-29T23:44:32.297Z,101715.46
2018-12-29T23:47:01.872Z,101712.92
2018-12-29T23:49:33.282Z,101715.60
2018-12-29T23:52:03.087Z,101738.58
2018-12-29T23:54:32.691Z,101738.58
2018-12-29T23:57:02.272Z,101728.60
2018-12-29T23:59:33.442Z,101736.99
